createdAt,value
2023-05-23T00:00:10.466Z,64.13
2023-05-23T00:01:10.691Z,63.93
2023-05-23T00:02:10.482Z,63.96
2023-05-23T00:03:10.683Z,64.13
2023-05-23T00:04:10.624Z,63.93
2023-05-23T00:05:10.402Z,64.16
2023-05-23T00:06:10.413Z,64.13
2023-05-23T00:07:10.389Z,64.16
2023-05-23T00:08:10.446Z,64.16
2023-05-23T00:09:10.519Z,64.16
2023-05-23T00:10:10.685Z,64.16
2023-05-23T00:11:10.404Z,64.16
2023-05-23T00:12:10.361Z,64.36
2023-05-23T00:13:10.297Z,64.36
2023-05-23T00:14:10.373Z,64.36
2023-05-23T00:15:10.558Z,64.16
2023-05-23T00:16:10.392Z,64.16
2023-05-23T00:17:10.679Z,63.96
2023-05-23T00:18:10.450Z,64.06
2023-05-23T00:19:10.339Z,64.56
2023-05-23T00:20:10.319Z,64.56
2023-05-23T00:21:10.541Z,64.26
2023-05-23T00:22:10.211Z,64.06
2023-05-23T00:23:10.325Z,64.87
2023-05-23T00:24:10.181Z,64.56
2023-05-23T00:25:10.223Z,64.67
2023-05-23T00:26:10.312Z,64.56
2023-05-23T00:27:10.211Z,64.67
2023-05-23T00:28:10.110Z,64.46
2023-05-23T00:29:10.247Z,64.76
2023-05-23T00:30:10.131Z,64.76
2023-05-23T00:31:10.134Z,64.76
2023-05-23T00:32:10.416Z,64.16
2023-05-23T00:33:10.111Z,64.97
2023-05-23T00:34:10.174Z,64.76
2023-05-23T00:35:10.102Z,64.87
2023-05-23T00:36:10.052Z,64.56
2023-05-23T00:37:10.047Z,64.87
2023-05-23T00:38:10.026Z,64.67
2023-05-23T00:39:10.051Z,64.97
2023-05-23T00:40:10.272Z,64.56
2023-05-23T00:41:10.270Z,64.76
2023-05-23T00:42:10.151Z,64.67
2023-05-23T00:43:10.111Z,64.76
2023-05-23T00:44:09.968Z,64.56
2023-05-23T00:45:09.948Z,64.56
2023-05-23T00:46:09.976Z,64.87
2023-05-23T00:47:10.036Z,64.76
2023-05-23T00:48:09.963Z,64.76
2023-05-23T00:49:09.909Z,64.76
2023-05-23T00:50:09.882Z,64.59
2023-05-23T00:51:10.084Z,64.59
2023-05-23T00:52:09.852Z,64.19
2023-05-23T00:53:09.908Z,64.39
2023-05-23T00:54:09.868Z,64.59
2023-05-23T00:55:09.874Z,64.79
2023-05-23T00:56:10.037Z,64.59
2023-05-23T00:57:09.806Z,64.90
2023-05-23T00:58:10.165Z,64.79
2023-05-23T00:59:09.784Z,64.39
2023-05-23T01:00:09.758Z,64.93
2023-05-23T01:01:09.753Z,65.03
2023-05-23T01:02:09.784Z,65.03
2023-05-23T01:03:09.794Z,64.73
2023-05-23T01:04:09.810Z,64.45
2023-05-23T01:05:09.693Z,65.13
2023-05-23T01:06:09.684Z,65.06
2023-05-23T01:07:09.675Z,65.16
2023-05-23T01:08:09.662Z,65.23
2023-05-23T01:09:09.657Z,65.26
2023-05-23T01:10:09.633Z,64.65
2023-05-23T01:11:09.621Z,64.65
2023-05-23T01:12:09.625Z,65.16
2023-05-23T01:13:09.596Z,65.26
2023-05-23T01:14:09.688Z,65.26
2023-05-23T01:15:09.572Z,64.65
2023-05-23T01:16:09.553Z,65.26
2023-05-23T01:17:09.544Z,64.65
2023-05-23T01:18:09.566Z,64.65
2023-05-23T01:19:09.582Z,65.06
2023-05-23T01:20:09.506Z,65.29
2023-05-23T01:21:09.498Z,64.65
2023-05-23T01:22:09.483Z,65.06
2023-05-23T01:23:09.492Z,64.69
2023-05-23T01:24:09.475Z,65.29
2023-05-23T01:25:09.447Z,64.79
2023-05-23T01:26:09.434Z,65.29
2023-05-23T01:27:09.435Z,65.19
2023-05-23T01:28:09.431Z,65.19
2023-05-23T01:29:09.410Z,65.39
2023-05-23T01:30:09.489Z,65.39
2023-05-23T01:31:09.374Z,65.29
2023-05-23T01:32:09.489Z,65.09
2023-05-23T01:33:09.403Z,65.70
2023-05-23T01:34:09.333Z,65.80
2023-05-23T01:35:09.320Z,65.70
2023-05-23T01:36:09.307Z,65.59
2023-05-23T01:37:09.299Z,65.70
2023-05-23T01:38:09.328Z,65.70
2023-05-23T01:39:09.277Z,65.70
2023-05-23T01:40:09.282Z,65.80
2023-05-23T01:41:09.252Z,65.67
2023-05-23T01:42:09.239Z,65.59
2023-05-23T01:43:09.223Z,65.70
2023-05-23T01:44:09.229Z,65.70
2023-05-23T01:45:09.211Z,65.70
2023-05-23T01:46:09.320Z,65.70
2023-05-23T01:47:09.176Z,65.90
2023-05-23T01:48:09.234Z,66.00
2023-05-23T01:49:09.158Z,66.10
2023-05-23T01:50:09.144Z,66.17
2023-05-23T01:51:09.133Z,66.17
2023-05-23T01:52:09.119Z,66.58
2023-05-23T01:53:09.116Z,66.67
2023-05-23T01:54:09.093Z,66.58
2023-05-23T01:55:09.086Z,66.58
2023-05-23T01:56:09.066Z,66.55
2023-05-23T01:57:09.061Z,66.55
2023-05-23T01:58:09.055Z,66.35
2023-05-23T01:59:09.035Z,66.44
2023-05-23T02:00:09.024Z,66.55
2023-05-23T02:01:09.048Z,66.72
2023-05-23T02:02:09.124Z,66.82
2023-05-23T02:03:09.046Z,66.41
2023-05-23T02:04:08.973Z,66.21
2023-05-23T02:05:08.962Z,66.52
2023-05-23T02:06:08.964Z,66.52
2023-05-23T02:07:08.936Z,66.41
2023-05-23T02:08:09.018Z,66.28
2023-05-23T02:09:08.912Z,66.28
2023-05-23T02:10:08.901Z,66.69
2023-05-23T02:11:08.915Z,66.38
2023-05-23T02:12:08.877Z,66.58
2023-05-23T02:13:08.866Z,66.38
2023-05-23T02:14:08.853Z,66.45
2023-05-23T02:15:08.841Z,66.28
2023-05-23T02:16:08.836Z,66.65
2023-05-23T02:17:08.840Z,66.35
2023-05-23T02:18:08.978Z,66.55
2023-05-23T02:19:08.874Z,66.35
2023-05-23T02:20:08.779Z,66.72
2023-05-23T02:21:08.771Z,66.32
2023-05-23T02:22:08.755Z,66.32
2023-05-23T02:23:08.744Z,66.42
2023-05-23T02:24:08.739Z,66.52
2023-05-23T02:25:08.756Z,66.52
2023-05-23T02:26:08.713Z,66.52
2023-05-23T02:27:08.696Z,66.39
2023-05-23T02:28:08.701Z,66.29
2023-05-23T02:29:08.685Z,66.59
2023-05-23T02:30:08.668Z,66.49
2023-05-23T02:31:08.717Z,66.49
2023-05-23T02:32:08.635Z,66.59
2023-05-23T02:33:08.662Z,66.66
2023-05-23T02:34:08.723Z,66.86
2023-05-23T02:35:08.640Z,66.46
2023-05-23T02:36:08.594Z,66.46
2023-05-23T02:37:08.582Z,66.96
2023-05-23T02:38:08.579Z,66.46
2023-05-23T02:39:08.574Z,66.56
2023-05-23T02:40:08.583Z,66.66
2023-05-23T02:41:08.532Z,66.42
2023-05-23T02:42:08.537Z,66.53
2023-05-23T02:43:08.507Z,66.46
2023-05-23T02:44:08.499Z,66.42
2023-05-23T02:45:08.499Z,66.33
2023-05-23T02:46:08.493Z,66.36
2023-05-23T02:47:08.466Z,66.46
2023-05-23T02:48:08.504Z,66.53
2023-05-23T02:49:08.450Z,66.63
2023-05-23T02:50:08.536Z,66.42
2023-05-23T02:51:08.419Z,66.33
2023-05-23T02:52:08.411Z,66.33
2023-05-23T02:53:08.392Z,66.73
2023-05-23T02:54:08.383Z,66.42
2023-05-23T02:55:08.375Z,66.73
2023-05-23T02:56:08.361Z,66.73
2023-05-23T02:57:08.348Z,66.83
2023-05-23T02:58:08.332Z,66.93
2023-05-23T02:59:08.321Z,66.83
2023-05-23T03:00:08.311Z,66.83
2023-05-23T03:01:08.548Z,66.93
2023-05-23T03:02:08.405Z,66.70
2023-05-23T03:03:08.391Z,66.70
2023-05-23T03:04:08.274Z,66.93
2023-05-23T03:05:08.279Z,66.60
2023-05-23T03:06:08.387Z,66.60
2023-05-23T03:08:08.257Z,66.60
2023-05-23T03:09:08.245Z,66.60
2023-05-23T03:10:08.233Z,66.60
2023-05-23T03:11:08.280Z,66.80
2023-05-23T03:12:08.213Z,66.70
2023-05-23T03:13:08.221Z,66.50
2023-05-23T03:14:08.197Z,66.80
2023-05-23T03:15:08.184Z,66.70
2023-05-23T03:16:08.246Z,66.70
2023-05-23T03:17:08.158Z,66.39
2023-05-23T03:18:08.193Z,66.30
2023-05-23T03:19:08.186Z,66.42
2023-05-23T03:20:08.118Z,66.33
2023-05-23T03:21:08.111Z,66.50
2023-05-23T03:22:08.235Z,66.33
2023-05-23T03:23:08.088Z,65.89
2023-05-23T03:24:08.078Z,66.33
2023-05-23T03:25:08.071Z,66.53
2023-05-23T03:26:08.059Z,66.42
2023-05-23T03:27:08.086Z,66.53
2023-05-23T03:28:08.026Z,66.73
2023-05-23T03:29:08.024Z,66.33
2023-05-23T03:30:10.596Z,66.42
2023-05-23T03:31:10.623Z,66.53
2023-05-23T03:32:08.113Z,66.22
2023-05-23T03:33:08.008Z,66.33
2023-05-23T03:34:07.966Z,66.33
2023-05-23T03:35:07.958Z,66.16
2023-05-23T03:36:07.934Z,65.95
2023-05-23T03:37:07.923Z,65.95
2023-05-23T03:38:08.030Z,66.05
2023-05-23T03:39:07.911Z,65.78
2023-05-23T03:40:07.892Z,65.99
2023-05-23T03:41:07.878Z,65.78
2023-05-23T03:42:07.869Z,65.88
2023-05-23T03:43:07.866Z,66.12
2023-05-23T03:44:07.869Z,65.78
2023-05-23T03:45:07.833Z,65.71
2023-05-23T03:46:07.845Z,65.92
2023-05-23T03:47:07.813Z,66.02
2023-05-23T03:48:07.876Z,66.02
2023-05-23T03:49:07.782Z,66.15
2023-05-23T03:50:07.772Z,66.15
2023-05-23T03:51:07.762Z,65.95
2023-05-23T03:52:07.761Z,65.84
2023-05-23T03:53:07.754Z,65.75
2023-05-23T03:54:07.842Z,66.05
2023-05-23T03:55:07.732Z,66.25
2023-05-23T03:56:07.707Z,66.05
2023-05-23T03:57:07.694Z,66.15
2023-05-23T03:58:07.676Z,65.95
2023-05-23T03:59:07.680Z,66.15
2023-05-23T04:00:07.655Z,66.05
2023-05-23T04:01:07.657Z,66.05
2023-05-23T04:02:08.014Z,65.95
2023-05-23T04:03:07.760Z,66.25
2023-05-23T04:04:07.705Z,65.95
2023-05-23T04:05:07.608Z,66.15
2023-05-23T04:06:07.588Z,66.25
2023-05-23T04:07:07.569Z,66.05
2023-05-23T04:08:07.567Z,66.05
2023-05-23T04:09:07.547Z,65.95
2023-05-23T04:10:07.640Z,66.05
2023-05-23T04:11:07.526Z,66.15
2023-05-23T04:12:07.514Z,65.75
2023-05-23T04:13:07.513Z,65.75
2023-05-23T04:14:07.494Z,65.95
2023-05-23T04:15:07.483Z,65.95
2023-05-23T04:16:07.496Z,65.54
2023-05-23T04:17:07.452Z,65.64
2023-05-23T04:18:07.552Z,65.44
2023-05-23T04:19:07.454Z,65.54
2023-05-23T04:20:07.414Z,65.54
2023-05-23T04:21:07.413Z,65.54
2023-05-23T04:22:07.370Z,65.34
2023-05-23T04:23:07.353Z,65.54
2023-05-23T04:24:07.339Z,65.54
2023-05-23T04:25:07.341Z,65.51
2023-05-23T04:26:07.407Z,65.31
2023-05-23T04:27:07.301Z,65.51
2023-05-23T04:28:07.279Z,65.51
2023-05-23T04:29:07.272Z,65.61
2023-05-23T04:30:07.261Z,65.61
2023-05-23T04:31:07.274Z,65.61
2023-05-23T04:32:07.241Z,65.54
2023-05-23T04:33:07.233Z,65.51
2023-05-23T04:34:07.232Z,65.41
2023-05-23T04:35:07.199Z,65.31
2023-05-23T04:36:07.189Z,65.51
2023-05-23T04:37:07.224Z,65.61
2023-05-23T04:38:07.206Z,65.92
2023-05-23T04:39:07.168Z,66.02
2023-05-23T04:40:07.148Z,66.32
2023-05-23T04:41:07.136Z,66.22
2023-05-23T04:42:07.226Z,66.39
2023-05-23T04:43:07.128Z,66.29
2023-05-23T04:44:07.094Z,66.29
2023-05-23T04:45:07.080Z,66.39
2023-05-23T04:46:07.070Z,66.25
2023-05-23T04:47:07.115Z,66.36
2023-05-23T04:48:07.098Z,66.25
2023-05-23T04:49:07.032Z,66.36
2023-05-23T04:50:07.056Z,66.25
2023-05-23T04:51:07.014Z,66.36
2023-05-23T04:52:07.041Z,66.46
2023-05-23T04:53:06.993Z,66.25
2023-05-23T04:54:07.005Z,66.13
2023-05-23T04:55:06.974Z,66.02
2023-05-23T04:56:06.970Z,66.02
2023-05-23T04:57:06.946Z,65.72
2023-05-23T04:58:07.035Z,65.92
2023-05-23T04:59:06.919Z,66.02
2023-05-23T05:00:06.912Z,66.13
2023-05-23T05:01:06.972Z,66.22
2023-05-23T05:02:06.887Z,66.42
2023-05-23T05:03:06.902Z,66.09
2023-05-23T05:04:06.903Z,65.79
2023-05-23T05:05:06.840Z,65.89
2023-05-23T05:06:06.831Z,65.89
2023-05-23T05:07:06.821Z,65.89
2023-05-23T05:08:06.807Z,65.89
2023-05-23T05:09:06.802Z,66.09
2023-05-23T05:10:06.797Z,65.99
2023-05-23T05:11:06.778Z,65.99
2023-05-23T05:12:06.798Z,65.46
2023-05-23T05:13:06.747Z,65.46
2023-05-23T05:14:06.837Z,65.42
2023-05-23T05:15:06.729Z,65.02
2023-05-23T05:16:06.718Z,64.82
2023-05-23T05:17:06.766Z,65.12
2023-05-23T05:18:06.750Z,64.82
2023-05-23T05:19:06.722Z,65.09
2023-05-23T05:20:06.666Z,64.89
2023-05-23T05:21:06.661Z,64.99
2023-05-23T05:22:06.639Z,64.99
2023-05-23T05:23:06.537Z,64.79
2023-05-23T05:24:06.626Z,64.89
2023-05-23T05:25:06.614Z,64.89
2023-05-23T05:26:06.615Z,64.69
2023-05-23T05:27:06.601Z,65.09
2023-05-23T05:28:06.567Z,65.30
2023-05-23T05:29:06.557Z,65.30
2023-05-23T05:30:06.644Z,65.30
2023-05-23T05:31:06.596Z,65.30
2023-05-23T05:32:06.554Z,65.42
2023-05-23T05:33:06.704Z,65.83
2023-05-23T05:34:06.515Z,65.53
2023-05-23T05:35:06.492Z,65.53
2023-05-23T05:36:06.487Z,65.53
2023-05-23T05:37:06.475Z,65.56
2023-05-23T05:38:06.459Z,65.56
2023-05-23T05:39:06.451Z,65.53
2023-05-23T05:40:06.442Z,65.56
2023-05-23T05:41:08.948Z,65.76
2023-05-23T05:42:06.433Z,65.66
2023-05-23T05:43:06.422Z,65.56
2023-05-23T05:44:06.470Z,65.56
2023-05-23T05:45:06.402Z,65.46
2023-05-23T05:46:06.497Z,65.56
2023-05-23T05:47:06.377Z,65.46
2023-05-23T05:48:06.419Z,65.56
2023-05-23T05:49:06.344Z,65.76
2023-05-23T05:50:06.344Z,65.46
2023-05-23T05:51:06.314Z,65.56
2023-05-23T05:52:06.301Z,65.66
2023-05-23T05:53:06.294Z,65.86
2023-05-23T05:54:06.287Z,65.86
2023-05-23T05:55:06.267Z,65.46
2023-05-23T05:56:06.261Z,65.46
2023-05-23T05:57:06.248Z,65.66
2023-05-23T05:58:06.252Z,65.86
2023-05-23T05:59:06.217Z,65.66
2023-05-23T06:00:06.216Z,65.66
2023-05-23T06:01:06.195Z,65.66
2023-05-23T06:02:06.285Z,65.42
2023-05-23T06:03:06.253Z,64.92
2023-05-23T06:04:06.451Z,64.92
2023-05-23T06:05:06.156Z,65.33
2023-05-23T06:06:06.152Z,64.92
2023-05-23T06:07:06.134Z,65.33
2023-05-23T06:08:06.117Z,65.33
2023-05-23T06:09:06.109Z,65.33
2023-05-23T06:10:06.098Z,64.82
2023-05-23T06:11:06.085Z,65.33
2023-05-23T06:12:06.086Z,65.12
2023-05-23T06:13:06.069Z,64.82
2023-05-23T06:14:06.095Z,64.82
2023-05-23T06:15:06.050Z,64.89
2023-05-23T06:16:06.093Z,64.89
2023-05-23T06:17:06.014Z,64.99
2023-05-23T06:18:06.169Z,64.79
2023-05-23T06:19:06.030Z,65.02
2023-05-23T06:20:05.991Z,64.72
2023-05-23T06:21:05.972Z,64.82
2023-05-23T06:22:05.965Z,65.12
2023-05-23T06:23:05.953Z,65.02
2023-05-23T06:24:05.938Z,65.42
2023-05-23T06:25:05.927Z,65.22
2023-05-23T06:26:05.922Z,65.33
2023-05-23T06:27:05.900Z,65.42
2023-05-23T06:28:05.903Z,65.16
2023-05-23T06:29:05.877Z,65.66
2023-05-23T06:30:05.881Z,65.46
2023-05-23T06:31:05.856Z,65.66
2023-05-23T06:32:05.890Z,65.56
2023-05-23T06:33:05.856Z,65.86
2023-05-23T06:34:05.929Z,65.96
2023-05-23T06:35:05.810Z,65.96
2023-05-23T06:36:05.799Z,65.66
2023-05-23T06:37:05.812Z,65.56
2023-05-23T06:38:05.777Z,65.56
2023-05-23T06:39:05.781Z,65.46
2023-05-23T06:40:05.777Z,65.22
2023-05-23T06:41:05.738Z,65.33
2023-05-23T06:42:05.729Z,65.22
2023-05-23T06:43:05.718Z,65.22
2023-05-23T06:44:05.712Z,65.12
2023-05-23T06:45:05.919Z,64.82
2023-05-23T06:46:05.711Z,64.82
2023-05-23T06:47:05.685Z,64.92
2023-05-23T06:48:05.689Z,65.42
2023-05-23T06:49:14.414Z,65.22
2023-05-23T06:50:05.740Z,65.33
2023-05-23T06:51:05.703Z,65.22
2023-05-23T06:52:05.628Z,65.42
2023-05-23T06:53:05.618Z,65.33
2023-05-23T06:54:05.607Z,65.42
2023-05-23T06:55:05.577Z,65.42
2023-05-23T06:56:05.568Z,65.33
2023-05-23T06:57:05.573Z,64.92
2023-05-23T06:58:05.569Z,65.12
2023-05-23T06:59:05.550Z,65.22
2023-05-23T07:00:05.528Z,64.72
2023-05-23T07:01:05.558Z,64.82
2023-05-23T07:02:05.500Z,64.92
2023-05-23T07:03:06.283Z,64.89
2023-05-23T07:04:05.514Z,64.89
2023-05-23T07:05:05.609Z,64.69
2023-05-23T07:06:05.466Z,64.66
2023-05-23T07:07:05.473Z,64.56
2023-05-23T07:08:05.469Z,64.06
2023-05-23T07:09:05.432Z,64.53
2023-05-23T07:10:05.413Z,63.73
2023-05-23T07:11:05.411Z,64.13
2023-05-23T07:12:05.386Z,63.79
2023-05-23T07:13:05.415Z,63.79
2023-05-23T07:14:05.372Z,64.00
2023-05-23T07:15:05.355Z,63.59
2023-05-23T07:16:05.354Z,63.46
2023-05-23T07:17:05.377Z,63.46
2023-05-23T07:18:05.379Z,63.17
2023-05-23T07:19:05.522Z,63.23
2023-05-23T07:20:05.302Z,63.03
2023-05-23T07:21:05.320Z,62.83
2023-05-23T07:22:05.383Z,62.93
2023-05-23T07:23:05.263Z,63.10
2023-05-23T07:24:05.255Z,62.70
2023-05-23T07:25:05.254Z,63.10
2023-05-23T07:26:05.228Z,62.77
2023-05-23T07:27:05.225Z,62.47
2023-05-23T07:28:05.211Z,62.84
2023-05-23T07:29:05.203Z,62.94
2023-05-23T07:30:05.196Z,62.84
2023-05-23T07:31:05.230Z,62.11
2023-05-23T07:32:05.168Z,62.31
2023-05-23T07:33:05.227Z,62.11
2023-05-23T07:34:05.151Z,61.88
2023-05-23T07:35:05.135Z,61.78
2023-05-23T07:36:05.141Z,61.35
2023-05-23T07:37:05.110Z,60.92
2023-05-23T07:38:05.419Z,60.82
2023-05-23T07:39:05.099Z,61.02
2023-05-23T07:40:05.083Z,61.22
2023-05-23T07:41:11.356Z,60.89
2023-05-23T07:42:05.061Z,60.16
2023-05-23T07:43:05.051Z,55.60
2023-05-23T07:44:05.035Z,55.05
2023-05-23T07:45:05.030Z,55.05
2023-05-23T07:46:05.092Z,55.25
2023-05-23T07:47:05.099Z,55.44
2023-05-23T07:48:05.036Z,55.32
2023-05-23T07:49:04.986Z,55.62
2023-05-23T07:50:04.978Z,54.87
2023-05-23T07:51:04.974Z,54.42
2023-05-23T07:52:04.972Z,54.82
2023-05-23T07:53:04.947Z,55.02
2023-05-23T07:54:04.956Z,54.99
2023-05-23T07:55:04.929Z,53.11
2023-05-23T07:56:04.917Z,51.30
2023-05-23T07:57:04.917Z,52.21
2023-05-23T07:58:04.900Z,47.25
2023-05-23T07:59:04.907Z,43.11
2023-05-23T08:00:04.907Z,41.84
2023-05-23T08:01:04.876Z,42.69
2023-05-23T08:02:04.893Z,44.52
2023-05-23T08:03:04.929Z,46.02
2023-05-23T08:04:04.907Z,46.12
2023-05-23T08:05:04.846Z,46.89
2023-05-23T08:06:04.845Z,48.11
2023-05-23T08:07:06.093Z,48.94
2023-05-23T08:08:04.856Z,49.21
2023-05-23T08:09:04.819Z,50.42
2023-05-23T08:10:04.863Z,50.66
2023-05-23T08:11:04.805Z,50.71
2023-05-23T08:12:04.801Z,51.10
2023-05-23T08:13:04.835Z,50.90
2023-05-23T08:14:04.788Z,51.20
2023-05-23T08:15:04.788Z,51.62
2023-05-23T08:16:04.790Z,52.03
2023-05-23T08:17:05.010Z,52.14
2023-05-23T08:18:04.870Z,51.97
2023-05-23T08:19:04.800Z,52.26
2023-05-23T08:20:04.757Z,53.17
2023-05-23T08:21:04.749Z,53.81
2023-05-23T08:22:04.738Z,54.13
2023-05-23T08:23:04.776Z,54.78
2023-05-23T08:24:04.733Z,54.90
2023-05-23T08:25:04.729Z,54.90
2023-05-23T08:26:04.736Z,54.83
2023-05-23T08:27:04.710Z,55.28
2023-05-23T08:28:04.701Z,56.30
2023-05-23T08:29:04.712Z,56.87
2023-05-23T08:30:04.696Z,56.80
2023-05-23T08:31:04.683Z,57.55
2023-05-23T08:32:04.734Z,57.08
2023-05-23T08:33:04.862Z,57.08
2023-05-23T08:34:04.668Z,57.60
2023-05-23T08:35:04.661Z,56.88
2023-05-23T08:36:04.647Z,57.15
2023-05-23T08:37:04.697Z,56.83
2023-05-23T08:38:04.675Z,56.21
2023-05-23T08:39:04.627Z,55.58
2023-05-23T08:40:04.633Z,54.61
2023-05-23T08:41:04.618Z,54.96
2023-05-23T08:42:04.615Z,55.71
2023-05-23T08:43:04.689Z,56.53
2023-05-23T08:44:04.586Z,56.95
2023-05-23T08:45:04.581Z,57.08
2023-05-23T08:46:04.621Z,57.11
2023-05-23T08:47:04.612Z,57.41
2023-05-23T08:48:04.671Z,57.73
2023-05-23T08:49:04.561Z,57.46
2023-05-23T08:50:04.579Z,57.26
2023-05-23T08:51:04.548Z,58.16
2023-05-23T08:52:04.533Z,58.06
2023-05-23T08:53:04.520Z,57.79
2023-05-23T08:54:04.510Z,57.17
2023-05-23T08:55:04.540Z,57.56
2023-05-23T08:56:04.517Z,57.01
2023-05-23T08:57:04.484Z,56.95
2023-05-23T08:58:04.478Z,56.13
2023-05-23T08:59:04.474Z,56.43
2023-05-23T09:00:06.335Z,55.94
2023-05-23T09:01:04.485Z,56.26
2023-05-23T09:02:04.508Z,56.26
2023-05-23T09:03:04.476Z,56.46
2023-05-23T09:04:04.474Z,56.43
2023-05-23T09:05:04.468Z,56.34
2023-05-23T09:06:04.430Z,56.34
2023-05-23T09:07:04.407Z,56.63
2023-05-23T09:08:04.405Z,56.93
2023-05-23T09:09:04.394Z,57.13
2023-05-23T09:10:04.389Z,56.73
2023-05-23T09:11:04.381Z,57.06
2023-05-23T09:12:04.365Z,57.06
2023-05-23T09:13:04.356Z,56.95
2023-05-23T09:14:04.364Z,56.93
2023-05-23T09:15:04.341Z,56.73
2023-05-23T09:16:04.405Z,55.71
2023-05-23T09:17:05.001Z,55.68
2023-05-23T09:18:04.387Z,54.86
2023-05-23T09:19:04.330Z,55.16
2023-05-23T09:20:04.300Z,55.13
2023-05-23T09:21:04.296Z,54.74
2023-05-23T09:22:04.290Z,54.84
2023-05-23T09:23:04.315Z,54.94
2023-05-23T09:24:04.272Z,55.30
2023-05-23T09:25:04.262Z,54.91
2023-05-23T09:26:04.254Z,54.88
2023-05-23T09:27:04.244Z,54.66
2023-05-23T09:28:04.239Z,54.34
2023-05-23T09:29:04.233Z,54.44
2023-05-23T09:30:04.232Z,54.41
2023-05-23T09:31:04.223Z,54.31
2023-05-23T09:32:04.291Z,54.19
2023-05-23T09:33:06.015Z,54.48
2023-05-23T09:34:04.214Z,53.77
2023-05-23T09:35:04.243Z,54.16
2023-05-23T09:36:04.197Z,54.46
2023-05-23T09:37:04.175Z,54.19
2023-05-23T09:38:04.174Z,54.58
2023-05-23T09:39:04.176Z,54.90
2023-05-23T09:40:04.196Z,54.86
2023-05-23T09:41:04.144Z,55.28
2023-05-23T09:42:04.137Z,56.30
2023-05-23T09:43:04.133Z,56.32
2023-05-23T09:44:04.140Z,56.55
2023-05-23T09:45:04.875Z,57.27
2023-05-23T09:46:04.124Z,56.90
2023-05-23T09:47:04.149Z,56.90
2023-05-23T09:48:04.143Z,57.00
2023-05-23T09:49:04.093Z,56.73
2023-05-23T09:50:04.078Z,56.80
2023-05-23T09:51:04.077Z,56.60
2023-05-23T09:52:04.066Z,56.60
2023-05-23T09:53:04.062Z,56.38
2023-05-23T09:54:04.051Z,56.35
2023-05-23T09:55:04.049Z,55.30
2023-05-23T09:56:04.043Z,54.24
2023-05-23T09:57:04.041Z,53.79
2023-05-23T09:58:04.021Z,53.37
2023-05-23T09:59:04.010Z,52.21
2023-05-23T10:00:04.003Z,51.35
2023-05-23T10:01:04.065Z,51.17
2023-05-23T10:02:04.094Z,51.12
2023-05-23T10:03:04.857Z,50.63
2023-05-23T10:04:04.036Z,51.17
2023-05-23T10:05:03.969Z,51.98
2023-05-23T10:06:03.971Z,52.62
2023-05-23T10:07:03.966Z,53.66
2023-05-23T10:08:03.954Z,54.28
2023-05-23T10:09:03.944Z,54.43
2023-05-23T10:10:04.447Z,54.38
2023-05-23T10:11:03.927Z,55.03
2023-05-23T10:12:03.923Z,55.75
2023-05-23T10:13:03.924Z,55.70
2023-05-23T10:14:03.912Z,55.93
2023-05-23T10:15:03.911Z,56.28
2023-05-23T10:16:03.899Z,56.70
2023-05-23T10:17:04.004Z,56.93
2023-05-23T10:18:03.994Z,56.93
2023-05-23T10:19:03.891Z,56.76
2023-05-23T10:20:03.874Z,57.28
2023-05-23T10:21:03.881Z,57.18
2023-05-23T10:22:03.858Z,56.91
2023-05-23T10:23:03.876Z,56.98
2023-05-23T10:24:03.845Z,56.81
2023-05-23T10:25:03.850Z,56.98
2023-05-23T10:26:03.826Z,57.28
2023-05-23T10:27:03.817Z,56.98
2023-05-23T10:28:04.641Z,57.08
2023-05-23T10:29:03.805Z,57.06
2023-05-23T10:30:03.794Z,57.38
2023-05-23T10:31:03.814Z,56.95
2023-05-23T10:32:03.792Z,56.85
2023-05-23T10:33:03.820Z,56.26
2023-05-23T10:34:03.767Z,56.26
2023-05-23T10:35:03.770Z,55.76
2023-05-23T10:36:03.889Z,56.36
2023-05-23T10:37:03.753Z,56.36
2023-05-23T10:38:03.737Z,56.26
2023-05-23T10:39:03.721Z,55.96
2023-05-23T10:40:03.707Z,56.36
2023-05-23T10:41:03.709Z,56.06
2023-05-23T10:42:03.697Z,55.57
2023-05-23T10:43:03.693Z,55.94
2023-05-23T10:44:03.685Z,55.64
2023-05-23T10:45:03.690Z,55.51
2023-05-23T10:46:03.737Z,55.41
2023-05-23T10:47:03.707Z,55.09
2023-05-23T10:48:03.696Z,54.86
2023-05-23T10:49:03.657Z,54.74
2023-05-23T10:50:03.635Z,54.61
2023-05-23T10:51:03.622Z,54.71
2023-05-23T10:52:03.628Z,54.71
2023-05-23T10:53:03.623Z,54.91
2023-05-23T10:54:03.607Z,55.21
2023-05-23T10:55:03.605Z,54.91
2023-05-23T10:56:03.647Z,54.91
2023-05-23T10:57:03.585Z,55.21
2023-05-23T10:58:03.575Z,55.04
2023-05-23T10:59:03.646Z,55.56
2023-05-23T11:00:03.638Z,56.38
2023-05-23T11:01:03.546Z,56.93
2023-05-23T11:02:03.576Z,56.76
2023-05-23T11:03:03.574Z,57.18
2023-05-23T11:04:03.571Z,57.31
2023-05-23T11:05:03.536Z,57.96
2023-05-23T11:06:03.535Z,58.36
2023-05-23T11:07:03.511Z,58.09
2023-05-23T11:08:03.493Z,57.56
2023-05-23T11:09:05.457Z,57.53
2023-05-23T11:10:03.481Z,56.91
2023-05-23T11:11:03.476Z,56.46
2023-05-23T11:12:03.477Z,55.54
2023-05-23T11:13:03.470Z,54.99
2023-05-23T11:14:03.454Z,55.46
2023-05-23T11:15:03.444Z,55.04
2023-05-23T11:16:03.455Z,54.81
2023-05-23T11:17:03.428Z,54.59
2023-05-23T11:18:03.488Z,54.59
2023-05-23T11:19:03.447Z,54.36
2023-05-23T11:20:03.428Z,54.24
2023-05-23T11:21:03.403Z,54.02
2023-05-23T11:22:03.411Z,54.19
2023-05-23T11:23:03.380Z,53.99
2023-05-23T11:24:03.370Z,54.09
2023-05-23T11:25:03.367Z,54.28
2023-05-23T11:26:03.444Z,54.71
2023-05-23T11:27:03.345Z,54.80
2023-05-23T11:28:03.341Z,55.13
2023-05-23T11:29:03.334Z,55.87
2023-05-23T11:30:03.332Z,56.42
2023-05-23T11:31:03.319Z,56.57
2023-05-23T11:32:03.395Z,57.42
2023-05-23T11:33:03.377Z,57.55
2023-05-23T11:34:03.318Z,58.00
2023-05-23T11:35:03.305Z,58.13
2023-05-23T11:36:03.289Z,58.95
2023-05-23T11:37:03.307Z,59.08
2023-05-23T11:38:07.869Z,58.81
2023-05-23T11:39:03.284Z,59.21
2023-05-23T11:40:03.324Z,59.04
2023-05-23T11:41:03.256Z,59.34
2023-05-23T11:42:03.260Z,58.94
2023-05-23T11:43:03.236Z,58.51
2023-05-23T11:44:03.261Z,57.29
2023-05-23T11:45:03.228Z,57.29
2023-05-23T11:49:17.197Z,55.44
2023-05-23T11:51:17.075Z,54.71
2023-05-23T11:52:14.840Z,53.99
2023-05-23T16:34:23.055Z,58.62
2023-05-23T16:35:23.071Z,57.82
2023-05-23T16:37:28.729Z,58.02
2023-05-23T16:38:28.697Z,57.92
2023-05-23T16:39:28.706Z,58.22
2023-05-23T16:40:28.669Z,58.52
2023-05-23T16:41:28.660Z,57.62
2023-05-23T16:42:28.645Z,57.95
2023-05-23T16:43:28.646Z,58.45
2023-05-23T16:44:28.728Z,58.65
2023-05-23T16:45:28.681Z,58.65
2023-05-23T16:46:28.627Z,58.65
2023-05-23T16:47:28.608Z,58.95
2023-05-23T16:48:28.595Z,58.95
2023-05-23T16:49:28.586Z,58.85
2023-05-23T16:50:28.571Z,58.58
2023-05-23T16:51:28.554Z,59.08
2023-05-23T16:52:28.537Z,59.05
2023-05-23T16:53:28.532Z,59.05
2023-05-23T16:54:28.536Z,58.68
2023-05-23T16:55:28.508Z,59.28
2023-05-23T16:56:28.505Z,59.28
2023-05-23T16:57:28.491Z,59.28
2023-05-23T16:58:28.475Z,59.20
2023-05-23T16:59:28.468Z,59.68
2023-05-23T17:00:28.453Z,59.61
2023-05-23T17:01:28.548Z,59.70
2023-05-23T17:02:28.479Z,59.70
2023-05-23T17:03:28.525Z,59.41
2023-05-23T17:04:28.410Z,59.44
2023-05-23T17:05:28.405Z,59.53
2023-05-23T17:06:28.390Z,59.33
2023-05-23T17:07:28.380Z,59.64
2023-05-23T17:08:28.369Z,59.66
2023-05-23T17:09:28.361Z,59.66
2023-05-23T17:10:28.346Z,60.10
2023-05-23T17:11:28.344Z,60.60
2023-05-23T17:12:28.325Z,60.69
2023-05-23T17:13:28.322Z,60.69
2023-05-23T17:14:28.304Z,60.93
2023-05-23T17:15:28.315Z,60.82
2023-05-23T17:16:28.335Z,60.22
2023-05-23T17:17:28.311Z,60.25
2023-05-23T17:18:28.258Z,60.96
2023-05-23T17:19:28.314Z,60.65
2023-05-23T17:20:28.255Z,60.96
2023-05-23T17:21:28.229Z,60.65
2023-05-23T17:22:28.223Z,60.65
2023-05-23T17:23:28.208Z,60.55
2023-05-23T17:24:28.221Z,60.98
2023-05-23T17:25:28.239Z,60.88
2023-05-23T17:26:28.183Z,60.88
2023-05-23T17:27:28.165Z,60.88
2023-05-23T17:28:28.163Z,60.88
2023-05-23T17:29:28.150Z,60.88
2023-05-23T17:30:28.131Z,60.98
2023-05-23T17:31:30.545Z,60.88
2023-05-23T17:32:28.122Z,60.88
2023-05-23T17:33:28.111Z,60.81
2023-05-23T17:34:29.338Z,60.78
2023-05-23T17:35:28.169Z,60.78
2023-05-23T17:36:28.077Z,60.71
2023-05-23T17:37:28.072Z,60.61
2023-05-23T17:38:28.056Z,60.41
2023-05-23T17:39:28.035Z,60.51